Time;durP1;ratioP1;P1;durP2;ratioP2;P2;SDS_P1;SDS_P2;PMS_P1;PMS_P2;Temp;Humidity;BMP_temperature;BMP_pressure;BME280_temperature;BME280_humidity;BME280_pressure;Samples;Min_cycle;Max_cycle;Signal;HPM_P1;HPM_P2
2022/03/07 00:06:15;;;;;;;1999.90;999.90;;;;;;;4.17;56.48;102140.00;15484548;28;19945;-61
2022/03/07 00:13:49;;;;;;;1999.90;999.90;;;;;;;4.15;55.97;102128.38;15501551;28;20046;-61
2022/03/07 00:21:21;;;;;;;1999.90;999.90;;;;;;;3.93;56.10;102128.34;15507404;28;20030;-62
2022/03/07 00:28:54;;;;;;;1999.90;999.90;;;;;;;4.04;55.96;102142.06;15495265;28;20400;-62
2022/03/07 00:36:27;;;;;;;1999.90;999.90;;;;;;;3.91;56.23;102130.53;15493736;28;20047;-60
2022/03/07 00:44:01;;;;;;;1999.90;999.90;;;;;;;4.10;56.35;102133.84;15477441;28;20045;-63
2022/03/07 00:51:33;;;;;;;1999.90;999.90;;;;;;;3.90;56.67;102140.75;15492919;28;20074;-63
2022/03/07 00:59:06;;;;;;;1999.90;999.90;;;;;;;3.58;57.37;102142.47;15492081;28;20070;-63
2022/03/07 01:06:38;;;;;;;;;;;;;;;3.40;57.59;102129.75;15508780;28;20050;-63
2022/03/07 01:14:12;;;;;;;1999.90;999.90;;;;;;;2.99;58.37;102136.47;15490875;28;20368;-63
2022/03/07 01:21:44;;;;;;;;;;;;;;;2.92;58.65;102133.03;15492239;28;20046;-63
2022/03/07 01:29:19;;;;;;;1999.90;999.90;;;;;;;2.58;59.97;102138.47;15490335;28;20004;-63
2022/03/07 01:36:51;;;;;;;1999.90;999.90;;;;;;;2.40;60.09;102138.63;15491183;28;20057;-63
2022/03/07 01:44:28;;;;;;;1999.90;999.90;;;;;;;2.31;60.00;102133.53;15506969;28;20050;-63
2022/03/07 01:52:00;;;;;;;1999.90;999.90;;;;;;;2.13;60.78;102121.81;15491937;28;20050;-63
2022/03/07 01:59:37;;;;;;;1999.90;999.90;;;;;;;2.17;60.37;102106.47;15499651;28;20049;-63
2022/03/07 02:07:09;;;;;;;1999.90;999.90;;;;;;;1.94;60.95;102113.72;15511464;28;20057;-63
2022/03/07 02:14:43;;;;;;;1999.90;999.90;;;;;;;1.95;61.15;102115.38;15519055;28;20054;-62
2022/03/07 02:22:16;;;;;;;1999.90;999.90;;;;;;;1.72;61.84;102107.16;15506729;28;20068;-64
2022/03/07 02:29:52;;;;;;;1999.90;999.90;;;;;;;1.72;62.39;102101.66;15472171;28;20042;-64
2022/03/07 02:37:34;;;;;;;1999.90;999.90;;;;;;;1.88;61.31;102094.59;15469871;28;20043;-63
2022/03/07 02:45:09;;;;;;;1999.90;999.90;;;;;;;1.87;61.51;102090.97;15502332;28;20486;-63
2022/03/07 02:52:43;;;;;;;;;;;;;;;1.97;61.40;102093.94;15487074;28;20101;-64
2022/03/07 03:00:15;;;;;;;1999.90;999.90;;;;;;;1.61;62.51;102092.31;15486487;28;19926;-63
2022/03/07 03:07:51;;;;;;;1999.90;999.90;;;;;;;1.63;62.69;102087.41;15501781;28;20109;-63
2022/03/07 03:15:23;;;;;;;1999.90;999.90;;;;;;;1.55;63.03;102090.50;15486295;28;20038;-62
2022/03/07 03:22:57;;;;;;;1999.90;999.90;;;;;;;1.51;62.73;102077.50;15486795;28;20505;-62
2022/03/07 03:30:29;;;;;;;;;;;;;;;1.59;62.78;102080.72;15486651;28;20047;-63
2022/03/07 03:38:02;;;;;;;1999.90;999.90;;;;;;;1.48;63.09;102084.31;15485089;28;19921;-64
2022/03/07 03:45:35;;;;;;;1999.90;999.90;;;;;;;1.51;62.75;102072.81;15446451;28;20072;-63
2022/03/07 03:53:08;;;;;;;1999.90;999.90;;;;;;;1.48;63.53;102069.72;15495154;28;20054;-64
2022/03/07 04:00:40;;;;;;;;;;;;;;;1.49;63.24;102082.41;15512906;28;20503;-64
2022/03/07 04:08:14;;;;;;;1999.90;999.90;;;;;;;1.32;63.56;102083.09;15514202;28;19928;-64
2022/03/07 04:15:47;;;;;;;1999.90;999.90;;;;;;;1.44;64.01;102080.34;15512940;28;20042;-62
2022/03/07 04:23:22;;;;;;;1999.90;999.90;;;;;;;1.32;64.26;102074.00;15534638;28;20126;-64
2022/03/07 04:30:54;;;;;;;1999.90;999.90;;;;;;;1.21;64.43;102088.59;15536936;28;20070;-64
2022/03/07 04:38:28;;;;;;;1999.90;999.90;;;;;;;1.18;64.62;102089.91;15510139;28;20050;-64
2022/03/07 04:46:00;;;;;;;1999.90;999.90;;;;;;;0.99;64.88;102102.06;15519921;28;20045;-62
2022/03/07 04:53:34;;;;;;;1999.90;999.90;;;;;;;0.98;64.78;102109.47;15501096;28;20054;-62
2022/03/07 05:01:06;;;;;;;1999.90;999.90;;;;;;;0.92;64.20;102101.31;15484624;28;20043;-62
2022/03/07 05:08:41;;;;;;;1999.90;999.90;;;;;;;0.71;66.00;102114.53;15493683;28;20053;-63
2022/03/07 05:16:13;;;;;;;1999.90;999.90;;;;;;;0.96;65.35;102111.63;15492967;28;20133;-65
2022/03/07 05:23:46;;;;;;;1999.90;999.90;;;;;;;1.02;65.18;102112.59;15493083;28;20077;-63
2022/03/07 05:31:19;;;;;;;;;;;;;;;1.02;65.58;102118.91;15491459;28;20074;-63
2022/03/07 05:38:52;;;;;;;1999.90;999.90;;;;;;;0.97;65.93;102131.72;15474940;28;19958;-63
2022/03/07 05:46:24;;;;;;;1999.90;999.90;;;;;;;0.92;66.39;102132.41;15489446;28;20456;-62
2022/03/07 05:53:58;;;;;;;1999.90;999.90;;;;;;;1.00;65.51;102125.72;15490579;28;20050;-63
2022/03/07 06:01:49;;;;;;;1999.90;999.90;;;;;;;1.00;65.39;102122.97;15485309;28;20061;-63
2022/03/07 06:09:23;;;;;;;1999.90;999.90;;;;;;;1.44;65.32;102110.63;15489837;28;20402;-61
2022/03/07 06:16:55;;;;;;;;;;;;;;;1.65;65.51;102117.44;15488127;28;20049;-63
2022/03/07 06:24:29;;;;;;;1999.90;999.90;;;;;;;1.63;64.92;102122.34;15488647;28;20004;-62
2022/03/07 06:32:02;;;;;;;1999.90;999.90;;;;;;;1.64;64.51;102124.84;15487450;28;20205;-63
2022/03/07 06:39:35;;;;;;;1999.90;999.90;;;;;;;1.93;64.21;102133.22;15484292;28;20038;-63
2022/03/07 06:47:07;;;;;;;;;;;;;;;2.24;64.16;102134.72;15479247;28;20349;-63
2022/03/07 06:54:41;;;;;;;1999.90;999.90;;;;;;;2.65;63.37;102133.66;15488451;28;19976;-63
2022/03/07 07:02:13;;;;;;;1999.90;999.90;;;;;;;3.21;62.63;102131.91;15487034;28;20042;-63
2022/03/07 07:09:47;;;;;;;1999.90;999.90;;;;;;;5.21;59.30;102137.09;15485384;28;20107;-63
2022/03/07 07:17:19;;;;;;;1999.90;999.90;;;;;;;6.54;55.89;102139.63;15482586;28;20077;-63
2022/03/07 07:24:52;;;;;;;1999.90;999.90;;;;;;;7.56;52.99;102141.75;15485322;28;20046;-62
2022/03/07 07:32:24;;;;;;;1999.90;999.90;;;;;;;8.45;50.70;102143.00;15468987;28;20062;-64
2022/03/07 07:39:58;;;;;;;1999.90;999.90;;;;;;;7.92;53.34;102148.97;15463586;28;20722;-64
2022/03/07 07:47:30;;;;;;;1999.90;999.90;;;;;;;8.10;52.21;102153.06;15424374;28;20078;-62
2022/03/07 07:55:04;;;;;;;1999.90;999.90;;;;;;;9.04;50.92;102150.47;15473173;28;20570;-65
2022/03/07 08:02:37;;;;;;;1999.90;999.90;;;;;;;9.61;48.88;102154.53;15485747;28;20553;-64
2022/03/07 08:10:12;;;;;;;1999.90;999.90;;;;;;;9.98;48.48;102156.69;15485805;28;20046;-64
2022/03/07 08:17:46;;;;;;;1999.90;999.90;;;;;;;10.74;47.11;102160.63;15500815;28;20133;-64
2022/03/07 08:25:21;;;;;;;1999.90;999.90;;;;;;;10.92;46.49;102170.94;15485938;28;20097;-65
2022/03/07 08:32:54;;;;;;;1999.90;999.90;;;;;;;12.05;44.65;102176.44;15472092;28;20389;-64
2022/03/07 08:40:27;;;;;;;1999.90;999.90;;;;;;;11.84;44.52;102170.41;15489689;28;20077;-64
2022/03/07 08:48:00;;;;;;;1999.90;999.90;;;;;;;11.39;45.92;102153.22;15496318;28;20223;-64
2022/03/07 08:55:33;;;;;;;1999.90;999.90;;;;;;;12.02;44.51;102149.94;15499289;28;20230;-64
2022/03/07 09:03:05;;;;;;;1999.90;999.90;;;;;;;12.40;43.11;102146.94;15496059;28;20058;-62
2022/03/07 09:10:38;;;;;;;1999.90;999.90;;;;;;;12.99;42.46;102140.34;15494547;28;20121;-63
2022/03/07 09:18:12;;;;;;;1999.90;999.90;;;;;;;13.82;40.22;102143.66;15494511;28;20383;-62
2022/03/07 09:25:48;;;;;;;1999.90;999.90;;;;;;;14.05;39.36;102144.47;15494569;28;20042;-62
2022/03/07 09:33:22;;;;;;;1999.90;999.90;;;;;;;14.77;39.52;102160.13;15509107;28;20057;-64
2022/03/07 09:40:56;;;;;;;1999.90;999.90;;;;;;;14.30;39.32;102150.53;15492948;28;20125;-65
2022/03/07 09:48:28;;;;;;;1999.90;999.90;;;;;;;14.75;38.91;102147.56;15490222;28;20030;-63
2022/03/07 09:56:02;;;;;;;1999.90;999.90;;;;;;;15.13;37.37;102151.44;15474096;28;20134;-65
2022/03/07 10:03:34;;;;;;;1999.90;999.90;;;;;;;15.96;36.66;102165.31;15481259;28;20112;-64
2022/03/07 10:11:10;;;;;;;1999.90;999.90;;;;;;;16.22;34.14;102156.78;15486052;28;20094;-64
2022/03/07 10:18:50;;;;;;;1999.90;999.90;;;;;;;17.20;33.80;102158.44;15487778;28;20458;-64
2022/03/07 10:26:24;;;;;;;1999.90;999.90;;;;;;;15.40;34.82;102172.78;15489381;28;20042;-64
2022/03/07 10:34:04;;;;;;;1999.90;999.90;;;;;;;15.52;34.94;102163.69;15489451;28;20046;-65
2022/03/07 10:41:40;;;;;;;1999.90;999.90;;;;;;;14.94;34.85;102179.03;15488822;28;20049;-65
2022/03/07 10:49:13;;;;;;;1999.90;999.90;;;;;;;16.64;34.08;102177.50;15487822;28;20053;-65
2022/03/07 10:56:56;;;;;;;1999.90;999.90;;;;;;;15.46;35.95;102170.66;15487920;28;20416;-65
2022/03/07 11:04:29;;;;;;;1999.90;999.90;;;;;;;18.78;31.24;102160.09;15486806;28;20381;-64
2022/03/07 11:12:06;;;;;;;1999.90;999.90;;;;;;;19.50;31.26;102157.47;15484260;28;20034;-65
2022/03/07 11:19:40;;;;;;;1999.90;999.90;;;;;;;18.89;30.33;102154.78;15486396;28;20049;-64
2022/03/07 11:27:17;;;;;;;1999.90;999.90;;;;;;;19.88;28.53;102151.31;15484691;28;20042;-64
2022/03/07 11:34:53;;;;;;;1999.90;999.90;;;;;;;19.05;29.21;102152.84;15483160;28;20460;-68
2022/03/07 11:42:36;;;;;;;1999.90;999.90;;;;;;;19.28;28.34;102144.69;15476016;28;20141;-63
2022/03/07 11:50:09;;;;;;;1999.90;999.90;;;;;;;20.05;26.92;102139.63;15484895;28;20538;-65
2022/03/07 11:57:46;;;;;;;1999.90;999.90;;;;;;;20.82;26.86;102127.00;15484244;28;20050;-65
2022/03/07 12:05:26;;;;;;;1999.90;999.90;;;;;;;21.11;25.68;102125.66;15484373;28;20463;-63
2022/03/07 12:13:07;;;;;;;1999.90;999.90;;;;;;;19.62;27.09;102114.16;15501469;28;20057;-65
2022/03/07 12:20:50;;;;;;;1999.90;999.90;;;;;;;19.38;26.05;102118.69;15496487;28;20503;-64
2022/03/07 12:28:31;;;;;;;1999.90;999.90;;;;;;;20.02;27.02;102106.38;15510963;28;20120;-64
2022/03/07 12:36:07;;;;;;;1999.90;999.90;;;;;;;19.77;26.96;102105.69;15495579;28;20473;-64
2022/03/07 12:43:40;;;;;;;1999.90;999.90;;;;;;;20.45;25.40;102088.47;15496273;28;20054;-64
2022/03/07 12:51:16;;;;;;;1999.90;999.90;;;;;;;21.43;24.26;102083.78;15496867;28;20053;-64
2022/03/07 12:58:51;;;;;;;1999.90;999.90;;;;;;;23.07;22.52;102078.09;15493719;28;20407;-63
2022/03/07 13:06:25;;;;;;;1999.90;999.90;;;;;;;22.18;22.89;102064.09;15493443;28;20077;-62
2022/03/07 13:13:59;;;;;;;1999.90;999.90;;;;;;;22.82;21.57;102043.53;15491970;28;20467;-63
2022/03/07 13:21:33;;;;;;;1999.90;999.90;;;;;;;21.01;23.24;102044.75;15491087;28;20089;-63
2022/03/07 13:29:09;;;;;;;1999.90;999.90;;;;;;;26.09;19.57;102050.91;15492137;28;20069;-62
2022/03/07 13:36:44;;;;;;;1999.90;999.90;;;;;;;20.56;23.11;102040.53;15491706;28;20042;-64
2022/03/07 13:44:18;;;;;;;1999.90;999.90;;;;;;;18.07;26.83;102030.53;15490431;28;20050;-66
2022/03/07 13:51:50;;;;;;;1999.90;999.90;;;;;;;14.15;32.35;102005.81;15491652;28;20054;-65
2022/03/07 13:59:25;;;;;;;1999.90;999.90;;;;;;;13.14;34.53;102020.63;15489693;28;20046;-62
2022/03/07 14:07:05;;;;;;;1999.90;999.90;;;;;;;13.48;34.96;102011.66;15489793;28;20042;-63
2022/03/07 14:14:38;;;;;;;1999.90;999.90;;;;;;;13.36;34.08;102001.03;15462290;28;20080;-64
2022/03/07 14:22:10;;;;;;;1999.90;999.90;;;;;;;13.45;33.20;102004.72;15497709;28;20108;-62
2022/03/07 14:29:44;;;;;;;1999.90;999.90;;;;;;;12.64;32.73;101990.75;15495169;28;20053;-62
2022/03/07 14:37:16;;;;;;;1999.90;999.90;;;;;;;12.61;33.40;101985.78;15485958;28;20038;-63
2022/03/07 14:44:51;;;;;;;1999.90;999.90;;;;;;;12.43;33.25;101984.78;15488402;28;20220;-63
2022/03/07 14:52:23;;;;;;;1999.90;999.90;;;;;;;13.12;32.33;101980.88;15504228;28;20397;-62
2022/03/07 14:59:58;;;;;;;1999.90;999.90;;;;;;;12.51;32.84;101974.81;15491066;28;20446;-59
2022/03/07 15:07:49;;;;;;;1999.90;999.90;;;;;;;12.35;32.67;101984.69;15488589;28;20101;-63
2022/03/07 15:15:26;;;;;;;1999.90;999.90;;;;;;;12.64;32.56;101985.16;15488310;28;20112;-64
2022/03/07 15:22:58;;;;;;;1999.90;999.90;;;;;;;12.81;32.06;101978.00;15489162;28;20047;-64
2022/03/07 15:30:32;;;;;;;1999.90;999.90;;;;;;;11.71;33.86;101970.66;15487504;28;20046;-62
2022/03/07 15:38:10;;;;;;;1999.90;999.90;;;;;;;11.65;33.62;101966.28;15488271;28;20066;-63
2022/03/07 15:45:44;;;;;;;1999.90;999.90;;;;;;;11.51;34.32;101962.66;15486457;28;20042;-62
2022/03/07 15:53:16;;;;;;;1999.90;999.90;;;;;;;11.06;35.52;101967.97;15495640;28;20081;-61
2022/03/07 16:00:50;;;;;;;1999.90;999.90;;;;;;;11.26;35.72;101959.22;15512896;28;20042;-59
2022/03/07 16:08:22;;;;;;;1999.90;999.90;;;;;;;11.14;36.75;101958.03;15497840;28;20053;-62
2022/03/07 16:15:56;;;;;;;1999.90;999.90;;;;;;;10.70;37.96;101967.72;15496455;28;20134;-64
2022/03/07 16:23:28;;;;;;;1999.90;999.90;;;;;;;10.63;37.74;101964.50;15512380;28;20148;-59
2022/03/07 16:31:02;;;;;;;1999.90;999.90;;;;;;;10.60;37.72;101965.91;15495869;28;20547;-64
2022/03/07 16:38:37;;;;;;;1999.90;999.90;;;;;;;10.94;37.97;101974.03;15494776;28;20398;-63
2022/03/07 16:46:11;;;;;;;1999.90;999.90;;;;;;;10.83;38.29;101985.66;15495656;28;20377;-63
2022/03/07 16:53:46;;;;;;;1999.90;999.90;;;;;;;10.54;38.77;101991.44;15495081;28;20050;-65
2022/03/07 17:01:20;;;;;;;1999.90;999.90;;;;;;;10.31;39.73;101991.19;15508577;28;20043;-63
2022/03/07 17:08:52;;;;;;;1999.90;999.90;;;;;;;10.26;40.31;101990.44;15494547;28;20174;-53
2022/03/07 17:16:25;;;;;;;1999.90;999.90;;;;;;;10.25;40.03;102005.53;15492482;28;20050;-63
2022/03/07 17:23:57;;;;;;;1999.90;999.90;;;;;;;9.53;41.62;102005.50;15494994;28;20169;-64
2022/03/07 17:31:31;;;;;;;1999.90;999.90;;;;;;;9.79;41.75;102003.25;15492966;28;20050;-62
2022/03/07 17:39:03;;;;;;;1999.90;999.90;;;;;;;9.71;42.46;102013.13;15490336;28;20100;-65
2022/03/07 17:46:37;;;;;;;1999.90;999.90;;;;;;;9.63;43.06;102018.50;15491688;28;20050;-66
2022/03/07 17:54:10;;;;;;;1999.90;999.90;;;;;;;9.32;43.32;102021.59;15490230;28;20096;-63
2022/03/07 18:01:45;;;;;;;1999.90;999.90;;;;;;;9.11;44.06;102034.88;15491745;28;20515;-64
2022/03/07 18:09:17;;;;;;;1999.90;999.90;;;;;;;8.94;44.65;102024.13;15490218;28;20129;-67
2022/03/07 18:16:52;;;;;;;1999.90;999.90;;;;;;;8.89;45.12;102024.19;15490650;28;20047;-61
2022/03/07 18:24:25;;;;;;;1999.90;999.90;;;;;;;8.60;45.52;102026.06;15508841;28;20046;-63
2022/03/07 18:31:58;;;;;;;1999.90;999.90;;;;;;;8.23;46.13;102023.72;15492262;28;20194;-64
2022/03/07 18:39:30;;;;;;;1999.90;999.90;;;;;;;7.93;47.43;102027.50;15492065;28;20373;-63
2022/03/07 18:47:05;;;;;;;1999.90;999.90;;;;;;;7.73;47.52;102025.63;15512702;23;20046;-56
2022/03/07 18:54:37;;;;;;;1999.90;999.90;;;;;;;7.46;48.53;102029.53;15465022;28;20057;-59
2022/03/07 19:02:16;;;;;;;1999.90;999.90;;;;;;;7.41;48.75;102054.56;15452081;28;20042;-56
2022/03/07 19:09:48;;;;;;;1999.90;999.90;;;;;;;7.14;49.75;102057.63;15436687;28;20050;-59
2022/03/07 19:17:22;;;;;;;1999.90;999.90;;;;;;;7.08;49.68;102057.88;15452478;28;20038;-60
2022/03/07 19:24:54;;;;;;;1999.90;999.90;;;;;;;6.84;50.48;102063.16;15408502;28;20173;-60
2022/03/07 19:32:28;;;;;;;1999.90;999.90;;;;;;;6.86;50.05;102072.84;15424703;28;20438;-59
2022/03/07 19:40:03;;;;;;;1999.90;999.90;;;;;;;6.73;50.86;102078.94;15426573;28;20142;-59
2022/03/07 19:47:37;;;;;;;1999.90;999.90;;;;;;;6.71;50.61;102092.25;15410740;28;20055;-55
2022/03/07 19:55:09;;;;;;;;;;;;;;;6.48;50.41;102095.53;15419933;28;20060;-59
2022/03/07 20:02:43;;;;;;;1999.90;999.90;;;;;;;6.20;51.54;102108.72;15415763;28;19922;-61
2022/03/07 20:10:15;;;;;;;1999.90;999.90;;;;;;;6.19;51.33;102120.06;15412777;28;20067;-60
2022/03/07 20:17:51;;;;;;;1999.90;999.90;;;;;;;6.23;51.18;102122.03;15406098;28;20122;-58
2022/03/07 20:25:24;;;;;;;1999.90;999.90;;;;;;;6.28;51.61;102132.31;15412162;28;20078;-58
2022/03/07 20:32:57;;;;;;;1999.90;999.90;;;;;;;6.10;51.58;102139.16;15418608;28;20043;-62
2022/03/07 20:40:29;;;;;;;1999.90;999.90;;;;;;;6.05;51.84;102148.28;15433132;28;20049;-58
2022/03/07 20:48:03;;;;;;;1999.90;999.90;;;;;;;6.00;52.17;102158.47;15454792;28;20043;-61
2022/03/07 20:55:35;;;;;;;1999.90;999.90;;;;;;;5.83;52.93;102161.38;15431913;28;20138;-61
2022/03/07 21:03:09;;;;;;;1999.90;999.90;;;;;;;5.64;52.80;102163.75;15459097;28;20503;-58
2022/03/07 21:10:42;;;;;;;1999.90;999.90;;;;;;;5.40;53.58;102154.94;15425777;28;20038;-60
2022/03/07 21:18:16;;;;;;;1999.90;999.90;;;;;;;5.33;53.79;102162.66;15440985;28;20049;-57
2022/03/07 21:25:48;;;;;;;1999.90;999.90;;;;;;;5.11;54.59;102167.44;15423590;28;20051;-59
2022/03/07 21:33:22;;;;;;;1999.90;999.90;;;;;;;4.88;55.20;102182.38;15425719;28;20085;-62
2022/03/07 21:40:54;;;;;;;1999.90;999.90;;;;;;;4.74;55.00;102181.09;15424556;28;20043;-62
2022/03/07 21:48:28;;;;;;;1999.90;999.90;;;;;;;4.56;55.77;102171.22;15404742;28;20717;-58
2022/03/07 21:56:00;;;;;;;1999.90;999.90;;;;;;;4.40;55.95;102170.19;15430121;28;20558;-56
2022/03/07 22:03:33;;;;;;;1999.90;999.90;;;;;;;4.28;56.28;102162.03;15428681;28;20081;-59
2022/03/07 22:11:05;;;;;;;1999.90;999.90;;;;;;;4.06;56.88;102158.38;15422122;28;20052;-58
2022/03/07 22:18:40;;;;;;;1999.90;999.90;;;;;;;3.64;58.18;102163.53;15405252;28;20050;-57
2022/03/07 22:26:12;;;;;;;1999.90;999.90;;;;;;;3.67;58.15;102169.41;15406382;28;20374;-61
2022/03/07 22:33:46;;;;;;;1999.90;999.90;;;;;;;3.64;58.07;102164.38;15420756;28;20047;-61
2022/03/07 22:41:18;;;;;;;1999.90;999.90;;;;;;;3.46;58.87;102157.19;15421553;28;20106;-60
2022/03/07 22:48:55;;;;;;;1999.90;999.90;;;;;;;3.44;59.24;102164.06;15430728;28;20415;-62
2022/03/07 22:56:30;;;;;;;1999.90;999.90;;;;;;;3.27;59.13;102165.97;15420867;28;20050;-61
2022/03/07 23:04:04;;;;;;;1999.90;999.90;;;;;;;3.17;59.46;102172.97;15423676;28;20039;-60
2022/03/07 23:11:36;;;;;;;1999.90;999.90;;;;;;;3.06;59.98;102173.88;15417401;28;20451;-59
2022/03/07 23:19:10;;;;;;;1999.90;999.90;;;;;;;2.90;60.40;102181.00;15461344;28;20065;-61
2022/03/07 23:26:44;;;;;;;1999.90;999.90;;;;;;;2.86;60.24;102182.59;15440613;28;20055;-59
2022/03/07 23:34:17;;;;;;;1999.90;999.90;;;;;;;2.89;60.55;102171.06;15423498;28;20045;-61
2022/03/07 23:41:49;;;;;;;1999.90;999.90;;;;;;;2.73;61.52;102171.84;15419864;28;20121;-60
2022/03/07 23:49:23;;;;;;;1999.90;999.90;;;;;;;2.91;60.38;102170.81;15448816;28;20065;-61
2022/03/07 23:56:56;;;;;;;1999.90;999.90;;;;;;;2.78;60.14;102157.31;15419310;28;20091;-61
